createdAt,value
2016-09-15T00:03:26.104Z,17.83
2016-09-15T00:04:20.187Z,17.78
2016-09-15T00:05:12.206Z,17.83
2016-09-15T00:06:21.967Z,17.85
2016-09-15T00:07:13.820Z,17.92
2016-09-15T00:11:20.918Z,17.80
2016-09-15T00:12:20.000Z,17.87
2016-09-15T00:13:20.530Z,17.89
2016-09-15T00:14:20.040Z,17.84
2016-09-15T00:15:16.290Z,17.80
2016-09-15T00:16:32.436Z,17.79
2016-09-15T00:17:18.669Z,17.78
2016-09-15T00:18:25.660Z,17.71
2016-09-15T00:19:13.720Z,17.73
2016-09-15T00:20:21.142Z,17.72
2016-09-15T00:23:16.652Z,17.73
2016-09-15T00:24:26.903Z,17.72
2016-09-15T00:25:25.948Z,17.67
2016-09-15T00:26:19.932Z,17.67
2016-09-15T00:27:28.003Z,17.65
2016-09-15T00:28:22.512Z,17.69
2016-09-15T00:29:15.894Z,17.71
2016-09-15T00:30:17.238Z,17.70
2016-09-15T00:32:16.830Z,17.64
2016-09-15T00:33:17.773Z,17.71
2016-09-15T00:34:23.468Z,17.69
2016-09-15T00:35:17.404Z,17.69
2016-09-15T00:36:21.010Z,17.68
2016-09-15T00:37:18.660Z,17.74
2016-09-15T00:38:20.215Z,17.67
2016-09-15T00:39:17.302Z,17.69
2016-09-15T00:41:26.981Z,17.64
2016-09-15T00:42:22.405Z,17.56
2016-09-15T00:43:26.174Z,17.48
2016-09-15T00:50:14.292Z,17.55
2016-09-15T00:51:17.719Z,17.39
2016-09-15T00:52:16.129Z,17.35
2016-09-15T00:53:26.112Z,17.32
2016-09-15T00:54:21.550Z,17.39
2016-09-15T00:55:16.820Z,17.42
2016-09-15T00:56:26.077Z,17.44
2016-09-15T00:57:17.295Z,17.42
2016-09-15T00:58:22.301Z,17.40
2016-09-15T00:59:28.004Z,17.38
2016-09-15T01:01:12.685Z,17.37
2016-09-15T01:02:17.696Z,17.31
2016-09-15T01:03:17.236Z,17.23
2016-09-15T01:04:22.709Z,17.16
2016-09-15T01:05:26.101Z,17.12
2016-09-15T01:06:20.646Z,17.11
2016-09-15T01:08:16.624Z,17.12
2016-09-15T01:09:17.399Z,17.14
2016-09-15T01:10:21.483Z,17.06
2016-09-15T01:11:22.065Z,17.04
2016-09-15T01:12:17.603Z,17.03
2016-09-15T01:13:16.567Z,17.08
2016-09-15T01:14:14.889Z,17.14
2016-09-15T01:16:26.001Z,17.18
2016-09-15T01:17:21.159Z,17.16
2016-09-15T01:18:20.660Z,17.20
2016-09-15T01:19:13.800Z,17.19
2016-09-15T01:21:13.715Z,17.20
2016-09-15T01:22:22.239Z,17.15
2016-09-15T01:23:16.946Z,17.07
2016-09-15T01:24:21.348Z,17.07
2016-09-15T01:25:12.938Z,16.98
2016-09-15T01:26:19.652Z,16.98
2016-09-15T01:28:24.006Z,16.94
2016-09-15T01:29:22.333Z,16.93
2016-09-15T01:30:17.106Z,16.97
2016-09-15T01:31:14.094Z,17.01
2016-09-15T01:32:25.812Z,16.98
2016-09-15T01:33:25.951Z,16.97
2016-09-15T01:35:16.110Z,17.02
2016-09-15T01:36:23.694Z,16.98
2016-09-15T01:37:20.726Z,16.96
2016-09-15T01:38:22.399Z,16.94
2016-09-15T01:39:17.561Z,17.07
2016-09-15T01:41:21.654Z,17.07
2016-09-15T01:42:21.055Z,17.07
2016-09-15T01:43:22.076Z,17.05
2016-09-15T01:45:17.312Z,17.03
2016-09-15T01:46:13.298Z,17.08
2016-09-15T01:47:20.712Z,17.04
2016-09-15T01:48:19.000Z,17.01
2016-09-15T01:49:15.647Z,17.02
2016-09-15T01:50:23.978Z,16.98
2016-09-15T01:51:22.404Z,17.04
2016-09-15T01:52:19.853Z,17.10
2016-09-15T01:53:22.242Z,17.08
2016-09-15T01:54:17.828Z,17.04
2016-09-15T01:55:14.171Z,17.00
2016-09-15T01:56:27.921Z,17.01
2016-09-15T01:57:14.934Z,17.04
2016-09-15T01:58:22.246Z,16.92
2016-09-15T01:59:21.509Z,16.88
2016-09-15T02:00:17.076Z,16.89
2016-09-15T02:01:16.175Z,16.92
2016-09-15T02:02:17.148Z,16.98
2016-09-15T02:03:20.194Z,16.94
2016-09-15T02:04:20.965Z,16.90
2016-09-15T02:06:21.591Z,16.90
2016-09-15T02:09:20.177Z,16.89
2016-09-15T02:10:21.087Z,16.87
2016-09-15T02:11:13.588Z,16.91
2016-09-15T02:12:17.905Z,16.84
2016-09-15T02:13:21.101Z,16.82
2016-09-15T02:15:19.712Z,16.84
2016-09-15T02:16:21.568Z,16.81
2016-09-15T02:17:22.304Z,16.81
2016-09-15T02:18:22.410Z,16.90
2016-09-15T02:20:17.790Z,16.85
2016-09-15T02:22:21.573Z,16.90
2016-09-15T02:23:16.574Z,16.91
2016-09-15T02:25:17.280Z,16.99
2016-09-15T02:26:21.309Z,16.94
2016-09-15T02:27:14.616Z,16.92
2016-09-15T02:28:16.977Z,16.88
2016-09-15T02:29:21.681Z,16.84
2016-09-15T02:31:22.512Z,16.79
2016-09-15T02:32:20.246Z,16.79
2016-09-15T02:33:17.440Z,16.74
2016-09-15T02:34:17.220Z,16.77
2016-09-15T02:36:11.946Z,16.73
2016-09-15T02:37:17.595Z,16.71
2016-09-15T02:38:16.607Z,16.64
2016-09-15T02:39:18.676Z,16.56
2016-09-15T02:40:20.743Z,16.60
2016-09-15T02:41:20.856Z,16.53
2016-09-15T02:42:18.669Z,16.52
2016-09-15T02:43:22.090Z,16.51
2016-09-15T02:44:17.597Z,16.49
2016-09-15T02:46:18.470Z,16.43
2016-09-15T02:47:20.740Z,16.37
2016-09-15T02:48:12.346Z,16.38
2016-09-15T02:49:26.112Z,16.37
2016-09-15T02:50:15.477Z,16.43
2016-09-15T02:51:20.583Z,16.48
2016-09-15T02:53:15.070Z,16.47
2016-09-15T02:54:27.973Z,16.47
2016-09-15T02:56:20.655Z,16.35
2016-09-15T02:57:20.043Z,16.24
2016-09-15T02:58:15.887Z,16.26
2016-09-15T02:59:22.282Z,16.31
2016-09-15T03:00:17.589Z,16.33
2016-09-15T03:01:27.118Z,16.37
2016-09-15T03:02:21.608Z,16.35
2016-09-15T03:03:17.686Z,16.32
2016-09-15T03:05:21.971Z,16.21
2016-09-15T03:06:20.791Z,16.15
2016-09-15T03:07:13.721Z,16.12
2016-09-15T03:08:14.215Z,16.10
2016-09-15T03:09:13.851Z,16.14
2016-09-15T03:12:25.743Z,16.23
2016-09-15T03:13:18.313Z,16.23
2016-09-15T03:14:22.403Z,16.18
2016-09-15T03:16:21.507Z,16.17
2016-09-15T03:17:23.016Z,16.14
2016-09-15T03:18:16.719Z,16.13
2016-09-15T03:19:16.630Z,16.18
2016-09-15T03:20:21.224Z,16.22
2016-09-15T03:21:17.251Z,16.24
2016-09-15T03:22:17.588Z,16.19
2016-09-15T03:23:16.230Z,16.05
2016-09-15T03:24:16.955Z,15.96
2016-09-15T03:25:19.214Z,15.91
2016-09-15T03:26:20.745Z,15.85
2016-09-15T03:27:20.761Z,15.94
2016-09-15T03:28:14.863Z,15.92
2016-09-15T03:29:23.323Z,15.83
2016-09-15T03:30:26.846Z,15.78
2016-09-15T03:31:22.104Z,15.74
2016-09-15T03:33:26.762Z,15.80
2016-09-15T03:35:22.120Z,15.76
2016-09-15T03:36:22.817Z,15.81
2016-09-15T03:37:26.000Z,15.82
2016-09-15T03:38:19.535Z,15.83
2016-09-15T03:39:22.051Z,15.85
2016-09-15T03:40:21.826Z,15.76
2016-09-15T03:42:17.362Z,15.79
2016-09-15T03:43:17.369Z,15.91
2016-09-15T03:44:19.385Z,15.97
2016-09-15T03:46:19.048Z,16.04
2016-09-15T03:47:15.787Z,16.05
2016-09-15T03:49:16.725Z,15.92
2016-09-15T03:50:20.560Z,15.92
2016-09-15T03:51:28.664Z,16.05
2016-09-15T03:52:22.285Z,16.11
2016-09-15T03:53:19.785Z,16.01
2016-09-15T03:54:16.960Z,16.04
2016-09-15T03:55:17.309Z,16.03
2016-09-15T03:57:17.393Z,15.97
2016-09-15T03:59:22.392Z,15.99
2016-09-15T04:00:12.782Z,16.02
2016-09-15T04:01:17.204Z,16.06
2016-09-15T04:03:15.413Z,15.99
2016-09-15T04:04:20.209Z,15.93
2016-09-15T04:05:18.391Z,15.93
2016-09-15T04:06:22.042Z,15.93
2016-09-15T04:07:17.049Z,15.91
2016-09-15T04:08:25.101Z,15.89
2016-09-15T04:09:26.067Z,15.82
2016-09-15T04:10:20.185Z,15.76
2016-09-15T04:12:22.047Z,15.76
2016-09-15T04:13:20.975Z,15.73
2016-09-15T04:14:13.328Z,15.65
2016-09-15T04:15:17.301Z,15.64
2016-09-15T04:18:16.177Z,15.58
2016-09-15T04:20:26.323Z,15.54
2016-09-15T04:21:17.432Z,15.56
2016-09-15T04:22:17.169Z,15.64
2016-09-15T04:26:20.367Z,15.55
2016-09-15T04:28:25.003Z,15.56
2016-09-15T04:30:16.989Z,15.58
2016-09-15T04:31:18.207Z,15.58
2016-09-15T04:32:15.632Z,15.55
2016-09-15T04:34:16.642Z,15.49
2016-09-15T04:35:26.017Z,15.52
2016-09-15T04:36:20.189Z,15.62
2016-09-15T04:37:26.541Z,15.61
2016-09-15T04:38:21.368Z,15.59
2016-09-15T04:39:21.567Z,15.62
2016-09-15T04:40:20.241Z,15.57
2016-09-15T04:41:16.768Z,15.57
2016-09-15T04:42:16.181Z,15.60
2016-09-15T04:44:16.012Z,15.48
2016-09-15T04:46:26.999Z,15.55
2016-09-15T04:47:27.124Z,15.54
2016-09-15T04:48:16.109Z,15.46
2016-09-15T04:49:26.552Z,15.48
2016-09-15T04:50:21.916Z,15.46
2016-09-15T04:51:16.516Z,15.53
2016-09-15T04:52:17.017Z,15.62
2016-09-15T04:53:25.652Z,15.62
2016-09-15T04:54:15.087Z,15.65
2016-09-15T04:55:22.332Z,15.71
2016-09-15T04:56:13.696Z,15.72
2016-09-15T04:57:18.095Z,15.65
2016-09-15T05:00:20.260Z,15.50
2016-09-15T05:01:19.995Z,15.46
2016-09-15T05:02:21.094Z,15.41
2016-09-15T05:04:21.076Z,15.38
2016-09-15T05:05:17.123Z,15.42
2016-09-15T05:06:14.668Z,15.47
2016-09-15T05:07:26.609Z,15.45
2016-09-15T05:09:22.430Z,15.52
2016-09-15T05:10:12.804Z,15.45
2016-09-15T05:11:13.952Z,15.45
2016-09-15T05:12:27.988Z,15.46
2016-09-15T05:13:18.345Z,15.49
2016-09-15T05:14:28.950Z,15.49
2016-09-15T05:16:16.194Z,15.39
2016-09-15T05:17:22.513Z,15.40
2016-09-15T05:19:26.872Z,15.41
2016-09-15T05:20:13.925Z,15.52
2016-09-15T05:21:13.142Z,15.60
2016-09-15T05:22:12.418Z,15.59
2016-09-15T05:23:20.693Z,15.59
2016-09-15T05:24:13.688Z,15.64
2016-09-15T05:26:20.340Z,15.48
2016-09-15T05:27:17.622Z,15.52
2016-09-15T05:28:13.035Z,15.59
2016-09-15T05:29:13.851Z,15.62
2016-09-15T05:30:22.267Z,15.68
2016-09-15T05:31:11.954Z,15.55
2016-09-15T05:32:16.734Z,15.56
2016-09-15T05:33:21.806Z,15.55
2016-09-15T05:34:21.888Z,15.56
2016-09-15T05:35:17.014Z,15.52
2016-09-15T05:37:23.198Z,15.65
2016-09-15T05:39:14.058Z,15.75
2016-09-15T05:42:09.714Z,15.72
2016-09-15T05:44:18.201Z,15.68
2016-09-15T05:45:24.351Z,15.63
2016-09-15T05:46:20.325Z,15.69
2016-09-15T05:47:21.535Z,15.65
2016-09-15T05:48:22.894Z,15.73
2016-09-15T05:50:17.190Z,15.78
2016-09-15T05:52:33.098Z,15.73
2016-09-15T05:54:15.142Z,15.81
2016-09-15T05:57:16.977Z,15.90
2016-09-15T05:58:18.008Z,15.96
2016-09-15T05:59:21.428Z,16.03
2016-09-15T06:00:14.429Z,16.04
2016-09-15T06:02:16.362Z,16.04
2016-09-15T06:03:16.961Z,16.03
2016-09-15T06:04:23.265Z,16.10
2016-09-15T06:06:14.136Z,16.17
2016-09-15T06:07:21.923Z,16.26
2016-09-15T06:08:17.522Z,16.28
2016-09-15T06:09:13.834Z,16.27
2016-09-15T06:10:20.985Z,16.29
2016-09-15T06:11:17.108Z,16.31
2016-09-15T06:13:14.911Z,16.41
2016-09-15T06:15:14.245Z,16.43
2016-09-15T06:16:12.000Z,16.52
2016-09-15T06:17:17.064Z,16.46
2016-09-15T06:18:20.716Z,16.59
2016-09-15T06:19:20.783Z,16.65
2016-09-15T06:20:12.222Z,16.59
2016-09-15T06:21:21.977Z,16.66
2016-09-15T06:22:22.288Z,16.59
2016-09-15T06:23:17.373Z,16.54
2016-09-15T06:24:16.854Z,16.55
2016-09-15T06:25:16.548Z,16.61
2016-09-15T06:26:17.939Z,16.70
2016-09-15T06:27:16.568Z,16.77
2016-09-15T06:28:19.402Z,16.67
2016-09-15T06:29:17.026Z,16.69
2016-09-15T06:30:25.196Z,16.67
2016-09-15T06:31:18.691Z,16.75
2016-09-15T06:32:21.200Z,16.78
2016-09-15T06:33:17.225Z,16.91
2016-09-15T06:34:20.264Z,16.88
2016-09-15T06:35:21.111Z,16.91
2016-09-15T06:38:14.351Z,17.01
2016-09-15T06:40:16.700Z,17.17
2016-09-15T06:41:16.073Z,17.18
2016-09-15T06:42:18.548Z,17.15
2016-09-15T06:44:18.508Z,17.11
2016-09-15T06:45:24.273Z,17.18
2016-09-15T06:47:27.538Z,17.23
2016-09-15T06:48:22.252Z,17.22
2016-09-15T06:49:14.950Z,17.27
2016-09-15T06:50:21.127Z,17.26
2016-09-15T06:52:18.691Z,17.32
2016-09-15T06:53:17.648Z,17.37
2016-09-15T06:55:18.103Z,17.45
2016-09-15T06:56:20.985Z,17.57
2016-09-15T06:57:28.253Z,17.54
2016-09-15T06:58:16.954Z,17.60
2016-09-15T06:59:23.727Z,17.66
2016-09-15T07:01:17.211Z,17.67
2016-09-15T07:02:15.566Z,17.68
2016-09-15T07:03:13.702Z,17.79
2016-09-15T07:04:21.036Z,17.84
2016-09-15T07:05:15.922Z,17.78
2016-09-15T07:06:16.611Z,17.78
2016-09-15T07:07:17.376Z,17.92
2016-09-15T07:08:26.271Z,17.90
2016-09-15T07:10:13.894Z,18.00
2016-09-15T07:11:15.636Z,17.99
2016-09-15T07:12:14.431Z,18.05
2016-09-15T07:16:18.293Z,17.99
2016-09-15T07:17:21.947Z,18.06
2016-09-15T07:18:19.667Z,18.04
2016-09-15T07:19:12.710Z,18.09
2016-09-15T07:20:12.383Z,18.20
2016-09-15T07:21:20.726Z,18.24
2016-09-15T07:22:16.447Z,18.27
2016-09-15T07:24:20.719Z,18.41
2016-09-15T07:25:25.973Z,18.46
2016-09-15T07:26:15.854Z,18.48
2016-09-15T07:27:25.866Z,18.52
2016-09-15T07:28:18.661Z,18.65
2016-09-15T07:29:21.811Z,18.64
2016-09-15T07:30:25.785Z,18.79
2016-09-15T07:31:14.066Z,18.79
2016-09-15T07:32:21.271Z,18.92
2016-09-15T07:33:14.184Z,18.90
2016-09-15T07:34:13.521Z,18.86
2016-09-15T07:35:19.271Z,18.83
2016-09-15T07:36:17.402Z,18.86
2016-09-15T07:37:16.727Z,18.88
2016-09-15T07:38:17.408Z,18.85
2016-09-15T07:39:20.793Z,18.86
2016-09-15T07:40:14.121Z,18.98
2016-09-15T07:41:22.214Z,18.90
2016-09-15T07:42:21.123Z,18.90
2016-09-15T07:48:19.115Z,19.04
2016-09-15T07:49:14.013Z,19.10
2016-09-15T07:51:24.474Z,19.12
2016-09-15T07:52:21.856Z,19.18
2016-09-15T07:53:14.043Z,19.17
2016-09-15T07:54:16.459Z,19.19
2016-09-15T07:55:16.692Z,19.19
2016-09-15T07:56:15.277Z,19.18
2016-09-15T07:57:12.880Z,19.27
2016-09-15T07:58:22.275Z,19.37
2016-09-15T07:59:23.159Z,19.45
2016-09-15T08:00:19.409Z,19.48
2016-09-15T08:01:26.963Z,19.53
2016-09-15T08:02:21.013Z,19.57
2016-09-15T08:03:21.905Z,19.63
2016-09-15T08:04:22.968Z,19.69
2016-09-15T08:05:14.301Z,19.79
2016-09-15T08:06:23.387Z,19.80
2016-09-15T08:09:22.323Z,19.90
2016-09-15T08:10:18.492Z,19.92
2016-09-15T08:11:17.366Z,19.84
2016-09-15T08:13:24.195Z,19.87
2016-09-15T08:14:15.009Z,19.89
2016-09-15T08:15:16.530Z,19.95
2016-09-15T08:16:21.041Z,20.01
2016-09-15T08:17:15.676Z,20.08
2016-09-15T08:19:21.259Z,20.14
2016-09-15T08:20:17.728Z,20.10
2016-09-15T08:21:18.600Z,20.10
2016-09-15T08:23:20.738Z,20.13
2016-09-15T08:24:21.514Z,20.20
2016-09-15T08:26:20.932Z,20.25
2016-09-15T08:27:25.082Z,20.37
2016-09-15T08:29:21.017Z,20.37
2016-09-15T08:30:12.804Z,20.43
2016-09-15T08:31:25.736Z,20.46
2016-09-15T08:33:17.821Z,20.49
2016-09-15T08:34:20.995Z,20.49
2016-09-15T08:35:14.128Z,20.49
2016-09-15T08:38:21.057Z,20.59
2016-09-15T08:39:13.602Z,20.64
2016-09-15T08:41:14.081Z,20.67
2016-09-15T08:44:18.201Z,20.70
2016-09-15T08:45:12.543Z,20.80
2016-09-15T08:46:18.569Z,20.81
2016-09-15T08:47:20.214Z,20.81
2016-09-15T08:48:31.909Z,20.87
2016-09-15T08:49:12.577Z,20.87
2016-09-15T08:50:13.163Z,20.87
2016-09-15T08:51:23.984Z,20.82
2016-09-15T08:52:23.316Z,20.84
2016-09-15T08:53:18.005Z,20.86
2016-09-15T08:55:22.231Z,20.91
2016-09-15T08:56:22.272Z,20.94
2016-09-15T08:57:21.020Z,20.93
2016-09-15T08:58:12.032Z,20.95
2016-09-15T09:01:20.486Z,21.21
2016-09-15T09:02:20.716Z,21.29
2016-09-15T09:03:27.486Z,21.31
2016-09-15T09:04:21.755Z,21.32
2016-09-15T09:06:20.814Z,21.38
2016-09-15T09:07:13.965Z,21.33
2016-09-15T09:08:12.225Z,21.31
2016-09-15T09:12:16.082Z,21.56
2016-09-15T09:13:20.791Z,21.50
2016-09-15T09:14:20.590Z,21.56
2016-09-15T09:17:18.930Z,21.72
2016-09-15T09:18:21.652Z,21.74
2016-09-15T09:19:14.537Z,21.74
2016-09-15T09:20:22.609Z,21.72
2016-09-15T09:22:27.822Z,21.76
2016-09-15T09:24:25.725Z,21.77
2016-09-15T09:25:19.260Z,21.81
2016-09-15T09:26:15.394Z,21.83
2016-09-15T09:27:17.584Z,21.79
2016-09-15T09:31:20.083Z,21.89
2016-09-15T09:32:21.024Z,21.93
2016-09-15T09:33:20.922Z,21.94
2016-09-15T09:34:13.792Z,21.93
2016-09-15T09:35:13.502Z,21.99
2016-09-15T09:38:20.691Z,22.21
2016-09-15T09:40:20.881Z,22.24
2016-09-15T09:41:19.245Z,22.33
2016-09-15T09:42:14.149Z,22.41
2016-09-15T09:44:20.015Z,22.48
2016-09-15T09:46:15.722Z,22.48
2016-09-15T09:51:20.289Z,22.43
2016-09-15T09:52:20.599Z,22.53
2016-09-15T09:53:26.467Z,22.63
2016-09-15T09:56:12.445Z,22.62
2016-09-15T09:57:17.803Z,22.64
2016-09-15T09:58:18.186Z,22.82
2016-09-15T09:59:17.551Z,22.87
2016-09-15T10:00:08.434Z,22.78
2016-09-15T10:01:13.399Z,22.87
2016-09-15T10:02:22.530Z,22.84
2016-09-15T10:03:31.593Z,22.92
2016-09-15T10:04:25.981Z,22.97
2016-09-15T10:05:11.588Z,22.99
2016-09-15T10:06:12.426Z,22.99
2016-09-15T10:07:23.189Z,23.00
2016-09-15T10:08:11.595Z,23.03
2016-09-15T10:09:12.355Z,22.94
2016-09-15T10:10:25.718Z,22.91
2016-09-15T10:12:21.504Z,23.18
2016-09-15T10:14:22.551Z,23.24
2016-09-15T10:15:20.392Z,23.31
2016-09-15T10:16:12.030Z,23.33
2016-09-15T10:17:13.806Z,23.39
2016-09-15T10:18:20.632Z,23.53
2016-09-15T10:20:17.618Z,23.43
2016-09-15T10:22:21.081Z,23.52
2016-09-15T10:25:26.011Z,23.35
2016-09-15T10:26:20.834Z,23.57
2016-09-15T10:27:22.399Z,23.67
2016-09-15T10:29:22.415Z,23.68
2016-09-15T10:30:23.845Z,23.73
2016-09-15T10:31:17.748Z,23.63
2016-09-15T10:32:13.643Z,23.61
2016-09-15T10:33:20.856Z,23.56
2016-09-15T10:34:21.080Z,23.63
2016-09-15T10:35:32.481Z,23.66
2016-09-15T10:38:12.491Z,23.48
2016-09-15T10:40:21.980Z,23.68
2016-09-15T10:41:21.396Z,23.77
2016-09-15T10:42:16.348Z,23.79
2016-09-15T10:43:12.687Z,23.78
2016-09-15T10:44:11.945Z,23.76
2016-09-15T10:45:20.686Z,23.83
2016-09-15T10:46:21.820Z,23.89
2016-09-15T10:48:11.616Z,23.89
2016-09-15T10:49:09.815Z,23.89
2016-09-15T10:50:12.662Z,23.90
2016-09-15T10:51:21.106Z,23.99
2016-09-15T10:52:17.219Z,24.09
2016-09-15T10:53:15.790Z,24.26
2016-09-15T10:54:12.520Z,24.20
2016-09-15T10:55:21.068Z,24.18
2016-09-15T10:56:12.292Z,24.31
2016-09-15T10:57:14.365Z,24.37
2016-09-15T10:59:22.819Z,24.32
2016-09-15T11:01:20.710Z,24.33
2016-09-15T11:02:12.534Z,24.19
2016-09-15T11:03:26.940Z,24.19
2016-09-15T11:04:14.937Z,24.20
2016-09-15T11:06:19.865Z,24.30
2016-09-15T11:07:12.812Z,24.34
2016-09-15T11:12:14.605Z,24.24
2016-09-15T11:13:22.905Z,24.26
2016-09-15T11:14:23.392Z,24.47
2016-09-15T11:16:27.041Z,24.59
2016-09-15T11:18:27.834Z,24.74
2016-09-15T11:19:08.316Z,24.83
2016-09-15T11:21:14.377Z,24.88
2016-09-15T11:22:18.981Z,24.82
2016-09-15T11:23:16.077Z,24.75
2016-09-15T11:24:13.300Z,24.78
2016-09-15T11:25:19.914Z,24.76
2016-09-15T11:26:13.315Z,24.99
2016-09-15T11:27:18.709Z,25.07
2016-09-15T11:28:20.289Z,25.16
2016-09-15T11:29:20.955Z,25.37
2016-09-15T11:30:27.661Z,25.24
2016-09-15T11:31:26.011Z,25.13
2016-09-15T11:32:21.292Z,25.05
2016-09-15T11:34:14.048Z,25.06
2016-09-15T11:35:14.128Z,25.13
2016-09-15T11:36:12.025Z,25.14
2016-09-15T11:37:12.214Z,25.18
2016-09-15T11:39:12.179Z,25.13
2016-09-15T11:41:14.370Z,25.07
2016-09-15T11:42:12.569Z,25.02
2016-09-15T11:43:13.210Z,25.05
2016-09-15T11:44:23.478Z,25.28
2016-09-15T11:45:22.406Z,25.36
2016-09-15T11:46:20.863Z,25.46
2016-09-15T11:47:18.257Z,25.41
2016-09-15T11:48:12.372Z,25.39
2016-09-15T11:49:16.857Z,25.34
2016-09-15T11:50:15.935Z,25.34
2016-09-15T11:52:20.121Z,25.33
2016-09-15T11:53:10.397Z,25.34
2016-09-15T11:55:21.088Z,25.35
2016-09-15T11:56:22.079Z,25.31
2016-09-15T11:57:13.136Z,25.26
2016-09-15T11:58:22.517Z,25.12
2016-09-15T11:59:21.906Z,25.32
2016-09-15T12:00:21.987Z,25.41
2016-09-15T12:01:21.006Z,25.37
2016-09-15T12:02:22.176Z,25.34
2016-09-15T12:03:27.404Z,25.31
2016-09-15T12:04:19.958Z,25.34
2016-09-15T12:06:12.282Z,25.53
2016-09-15T12:07:12.705Z,25.55
2016-09-15T12:08:27.707Z,25.58
2016-09-15T12:09:12.093Z,25.45
2016-09-15T12:10:24.040Z,25.46
2016-09-15T12:11:19.290Z,25.55
2016-09-15T12:12:21.083Z,25.55
2016-09-15T12:14:20.820Z,25.44
2016-09-15T12:15:23.693Z,25.40
2016-09-15T12:16:21.892Z,25.34
2016-09-15T12:18:11.864Z,25.37
2016-09-15T12:20:22.276Z,25.46
2016-09-15T12:21:25.013Z,25.41
2016-09-15T12:22:19.508Z,25.44
2016-09-15T12:23:23.990Z,25.44
2016-09-15T12:24:12.191Z,25.56
2016-09-15T12:26:16.555Z,25.66
2016-09-15T12:27:23.304Z,25.63
2016-09-15T12:28:12.176Z,25.70
2016-09-15T12:32:17.219Z,25.71
2016-09-15T12:37:25.089Z,25.91
2016-09-15T12:39:17.995Z,26.02
2016-09-15T12:40:17.702Z,25.84
2016-09-15T12:41:19.396Z,25.79
2016-09-15T12:42:15.866Z,26.07
2016-09-15T12:46:20.898Z,26.50
2016-09-15T12:47:13.150Z,26.62
2016-09-15T12:49:14.080Z,26.46
2016-09-15T12:50:17.373Z,26.46
2016-09-15T12:51:14.867Z,26.43
2016-09-15T12:52:18.909Z,26.55
2016-09-15T12:55:14.836Z,26.58
2016-09-15T12:56:12.439Z,26.46
2016-09-15T12:58:26.843Z,26.55
2016-09-15T12:59:18.947Z,26.67
2016-09-15T13:00:12.527Z,26.57
2016-09-15T13:01:18.930Z,26.49
2016-09-15T13:02:12.926Z,26.38
2016-09-15T13:03:09.711Z,26.29
2016-09-15T13:04:22.820Z,26.15
2016-09-15T13:05:15.442Z,26.10
2016-09-15T13:06:12.865Z,26.15
2016-09-15T13:07:18.563Z,26.28
2016-09-15T13:08:14.248Z,26.24
2016-09-15T13:09:13.340Z,26.14
2016-09-15T13:10:25.534Z,26.04
2016-09-15T13:12:14.931Z,25.99
2016-09-15T13:14:24.191Z,26.07
2016-09-15T13:15:13.809Z,26.22
2016-09-15T13:16:15.367Z,26.35
2016-09-15T13:17:17.375Z,26.40
2016-09-15T13:18:13.617Z,26.41
2016-09-15T13:19:12.526Z,26.49
2016-09-15T13:20:20.726Z,26.39
2016-09-15T13:21:12.486Z,26.35
2016-09-15T13:22:18.975Z,26.29
2016-09-15T13:23:11.527Z,26.29
2016-09-15T13:24:17.002Z,26.30
2016-09-15T13:29:20.832Z,26.21
2016-09-15T13:30:12.802Z,26.23
2016-09-15T13:31:21.896Z,26.12
2016-09-15T13:33:20.753Z,26.08
2016-09-15T13:35:12.727Z,26.07
2016-09-15T13:36:15.742Z,26.07
2016-09-15T13:37:11.315Z,26.10
2016-09-15T13:38:27.933Z,26.15
2016-09-15T13:40:19.994Z,26.28
2016-09-15T13:41:12.017Z,26.31
2016-09-15T13:45:13.141Z,26.24
2016-09-15T13:49:26.998Z,26.38
2016-09-15T13:53:23.137Z,26.22
2016-09-15T13:55:14.089Z,26.17
2016-09-15T13:56:11.634Z,26.18
2016-09-15T13:57:13.282Z,26.22
2016-09-15T14:03:14.894Z,26.19
2016-09-15T14:04:20.969Z,26.18
2016-09-15T14:10:13.524Z,26.27
2016-09-15T14:15:12.014Z,26.27
2016-09-15T14:16:20.926Z,26.24
2016-09-15T14:18:12.017Z,26.14
2016-09-15T14:19:20.869Z,26.08
2016-09-15T14:20:24.373Z,26.06
2016-09-15T14:24:12.934Z,25.97
2016-09-15T14:25:18.425Z,26.03
2016-09-15T14:26:19.760Z,26.06
2016-09-15T14:30:14.048Z,25.97
2016-09-15T14:31:12.713Z,25.82
2016-09-15T14:32:27.353Z,25.78
2016-09-15T14:33:13.296Z,25.71
2016-09-15T14:34:13.051Z,25.69
2016-09-15T14:35:22.491Z,25.72
2016-09-15T14:36:25.416Z,25.82
2016-09-15T14:37:20.430Z,25.71
2016-09-15T14:38:19.430Z,25.63
2016-09-15T14:39:16.119Z,25.57
2016-09-15T14:40:20.736Z,25.52
2016-09-15T14:41:20.676Z,25.54
2016-09-15T14:42:22.399Z,25.58
2016-09-15T14:43:12.312Z,25.51
2016-09-15T14:44:12.453Z,25.51
2016-09-15T14:45:12.578Z,25.58
2016-09-15T14:46:24.933Z,25.57
2016-09-15T14:47:18.372Z,25.39
2016-09-15T14:48:27.563Z,25.39
2016-09-15T14:51:15.065Z,25.25
2016-09-15T14:52:11.975Z,25.35
2016-09-15T14:56:16.791Z,25.42
2016-09-15T14:57:21.230Z,25.33
2016-09-15T14:58:17.976Z,25.27
2016-09-15T14:59:22.394Z,25.16
2016-09-15T15:00:22.225Z,25.04
2016-09-15T15:01:16.088Z,25.05
2016-09-15T15:04:13.534Z,25.06
2016-09-15T15:05:20.024Z,25.13
2016-09-15T15:06:20.399Z,25.19
2016-09-15T15:08:21.288Z,25.34
2016-09-15T15:11:13.619Z,25.20
2016-09-15T15:12:14.250Z,25.15
2016-09-15T15:13:13.896Z,25.16
2016-09-15T15:14:13.694Z,25.09
2016-09-15T15:15:14.419Z,25.04
2016-09-15T15:19:12.622Z,24.86
2016-09-15T15:20:14.886Z,24.89
2016-09-15T15:21:13.174Z,24.97
2016-09-15T15:23:21.996Z,24.99
2016-09-15T15:24:18.557Z,24.96
2016-09-15T15:26:21.810Z,24.84
2016-09-15T15:27:12.147Z,24.84
2016-09-15T15:30:12.052Z,24.83
2016-09-15T15:35:20.468Z,25.16
2016-09-15T15:36:22.648Z,25.11
2016-09-15T15:38:17.214Z,25.05
2016-09-15T15:42:17.148Z,25.02
2016-09-15T15:43:27.515Z,25.03
2016-09-15T15:44:17.624Z,25.09
2016-09-15T15:45:13.416Z,25.10
2016-09-15T15:46:22.539Z,25.11
2016-09-15T15:47:12.470Z,25.14
2016-09-15T15:51:11.493Z,25.36
2016-09-15T15:52:13.812Z,25.35
2016-09-15T15:53:21.356Z,25.33
2016-09-15T15:54:14.150Z,25.35
2016-09-15T15:55:19.134Z,25.33
2016-09-15T15:56:15.502Z,25.29
2016-09-15T15:57:33.957Z,25.27
2016-09-15T15:59:28.669Z,25.41
2016-09-15T16:00:13.678Z,25.40
2016-09-15T16:02:12.109Z,25.45
2016-09-15T16:06:15.011Z,25.29
2016-09-15T16:07:15.201Z,25.27
2016-09-15T16:08:18.683Z,25.27
2016-09-15T16:11:12.095Z,25.21
2016-09-15T16:13:11.605Z,25.10
2016-09-15T16:15:14.025Z,25.01
2016-09-15T16:16:21.018Z,25.03
2016-09-15T16:18:23.349Z,25.06
2016-09-15T16:19:07.474Z,25.05
2016-09-15T16:20:08.147Z,25.07
2016-09-15T16:21:17.954Z,25.07
2016-09-15T16:22:14.957Z,24.96
2016-09-15T16:23:09.733Z,24.96
2016-09-15T16:24:13.768Z,25.00
2016-09-15T16:26:19.024Z,25.00
2016-09-15T16:28:13.999Z,25.05
2016-09-15T16:29:21.302Z,25.03
2016-09-15T16:30:21.422Z,24.93
2016-09-15T16:31:18.636Z,24.93
2016-09-15T16:32:17.291Z,24.93
2016-09-15T16:33:17.761Z,24.90
2016-09-15T16:36:12.198Z,24.89
2016-09-15T16:37:21.680Z,24.94
2016-09-15T16:44:20.539Z,24.60
2016-09-15T16:45:13.737Z,24.53
2016-09-15T16:46:21.188Z,24.50
2016-09-15T16:47:23.595Z,24.50
2016-09-15T16:49:19.480Z,24.47
2016-09-15T16:52:19.254Z,24.27
2016-09-15T16:54:18.643Z,24.13
2016-09-15T16:58:17.252Z,24.04
2016-09-15T17:00:18.025Z,23.95
2016-09-15T17:01:15.431Z,23.91
2016-09-15T17:10:13.255Z,23.54
2016-09-15T17:14:21.214Z,23.48
2016-09-15T17:15:23.079Z,23.40
2016-09-15T17:20:16.998Z,23.24
2016-09-15T17:21:18.600Z,23.21
2016-09-15T17:23:17.742Z,23.29
2016-09-15T17:24:14.130Z,23.27
2016-09-15T17:29:26.396Z,23.32
2016-09-15T17:31:21.268Z,23.34
2016-09-15T17:32:21.032Z,23.30
2016-09-15T17:33:26.235Z,23.26
2016-09-15T17:34:14.825Z,23.29
2016-09-15T17:37:26.600Z,23.22
2016-09-15T17:38:20.194Z,23.20
2016-09-15T17:40:26.619Z,23.18
2016-09-15T17:42:22.458Z,23.17
2016-09-15T17:43:21.053Z,23.14
2016-09-15T17:45:13.025Z,23.12
2016-09-15T17:46:14.284Z,23.05
2016-09-15T17:47:22.288Z,23.02
2016-09-15T17:50:21.214Z,22.83
2016-09-15T17:52:13.540Z,22.87
2016-09-15T17:54:17.683Z,22.85
2016-09-15T17:56:17.626Z,22.77
2016-09-15T17:57:12.608Z,22.78
2016-09-15T17:58:21.522Z,22.87
2016-09-15T17:59:21.194Z,22.88
2016-09-15T18:00:27.227Z,22.85
2016-09-15T18:05:20.632Z,22.69
2016-09-15T18:06:21.361Z,22.59
2016-09-15T18:08:11.254Z,22.55